sensor_id;sensor_type;location;lat;lon;timestamp;temperature;humidity
22522;DHT22;11427;51.062;17.044;2022-12-11T00:02:52;0.80;99.90
22522;DHT22;11427;51.062;17.044;2022-12-11T00:17:54;0.90;99.90
22522;DHT22;11427;51.062;17.044;2022-12-11T00:32:56;0.80;99.90
22522;DHT22;11427;51.062;17.044;2022-12-11T00:47:58;0.90;99.90
22522;DHT22;11427;51.062;17.044;2022-12-11T01:03:00;0.70;99.90
22522;DHT22;11427;51.062;17.044;2022-12-11T01:18:03;0.60;99.90
22522;DHT22;11427;51.062;17.044;2022-12-11T01:33:05;0.80;99.90
22522;DHT22;11427;51.062;17.044;2022-12-11T01:48:10;0.70;99.90
22522;DHT22;11427;51.062;17.044;2022-12-11T02:03:13;0.80;99.90
22522;DHT22;11427;51.062;17.044;2022-12-11T02:18:37;0.90;99.90
22522;DHT22;11427;51.062;17.044;2022-12-11T02:33:50;0.70;99.90
22522;DHT22;11427;51.062;17.044;2022-12-11T02:48:53;0.60;99.90
22522;DHT22;11427;51.062;17.044;2022-12-11T03:03:57;0.70;99.90
22522;DHT22;11427;51.062;17.044;2022-12-11T03:19:30;0.50;99.90
22522;DHT22;11427;51.062;17.044;2022-12-11T03:34:49;0.50;99.90
22522;DHT22;11427;51.062;17.044;2022-12-11T03:49:59;0.40;99.90
22522;DHT22;11427;51.062;17.044;2022-12-11T04:05:02;0.40;99.90
22522;DHT22;11427;51.062;17.044;2022-12-11T04:20:05;0.30;99.90
22522;DHT22;11427;51.062;17.044;2022-12-11T04:35:26;0.30;99.90
22522;DHT22;11427;51.062;17.044;2022-12-11T04:50:28;0.30;99.90
22522;DHT22;11427;51.062;17.044;2022-12-11T05:05:30;0.30;99.90
22522;DHT22;11427;51.062;17.044;2022-12-11T05:20:32;0.30;99.90
22522;DHT22;11427;51.062;17.044;2022-12-11T05:35:34;0.30;99.90
22522;DHT22;11427;51.062;17.044;2022-12-11T05:50:36;0.10;99.90
22522;DHT22;11427;51.062;17.044;2022-12-11T06:05:39;0.20;99.90
22522;DHT22;11427;51.062;17.044;2022-12-11T06:20:42;0.10;99.90
22522;DHT22;11427;51.062;17.044;2022-12-11T06:35:44;0.10;99.90
22522;DHT22;11427;51.062;17.044;2022-12-11T06:50:46;0.10;99.90
22522;DHT22;11427;51.062;17.044;2022-12-11T07:05:49;0.20;99.90
22522;DHT22;11427;51.062;17.044;2022-12-11T07:20:51;0.00;99.90
22522;DHT22;11427;51.062;17.044;2022-12-11T07:35:53;0.20;99.90
22522;DHT22;11427;51.062;17.044;2022-12-11T07:50:56;0.20;99.90
22522;DHT22;11427;51.062;17.044;2022-12-11T08:06:08;0.40;99.90
22522;DHT22;11427;51.062;17.044;2022-12-11T08:21:13;0.30;99.90
22522;DHT22;11427;51.062;17.044;2022-12-11T08:36:19;0.30;99.90
22522;DHT22;11427;51.062;17.044;2022-12-11T08:51:24;0.10;99.90
22522;DHT22;11427;51.062;17.044;2022-12-11T09:06:28;0.30;99.90
22522;DHT22;11427;51.062;17.044;2022-12-11T09:21:30;0.10;99.90
22522;DHT22;11427;51.062;17.044;2022-12-11T09:36:33;0.00;99.90
22522;DHT22;11427;51.062;17.044;2022-12-11T09:51:51;0.00;99.90
22522;DHT22;11427;51.062;17.044;2022-12-11T10:07:10;0.30;99.90
22522;DHT22;11427;51.062;17.044;2022-12-11T10:22:26;0.10;99.90
22522;DHT22;11427;51.062;17.044;2022-12-11T10:37:30;0.20;99.90
22522;DHT22;11427;51.062;17.044;2022-12-11T10:52:36;0.20;99.90
22522;DHT22;11427;51.062;17.044;2022-12-11T11:07:39;0.20;99.90
22522;DHT22;11427;51.062;17.044;2022-12-11T11:22:44;0.10;99.90
22522;DHT22;11427;51.062;17.044;2022-12-11T11:38:15;0.20;99.90
22522;DHT22;11427;51.062;17.044;2022-12-11T11:53:29;-0.20;99.90
22522;DHT22;11427;51.062;17.044;2022-12-11T12:39:21;0.00;99.90
22522;DHT22;11427;51.062;17.044;2022-12-11T12:54:26;-0.10;99.90
22522;DHT22;11427;51.062;17.044;2022-12-11T13:09:31;-0.20;99.90
22522;DHT22;11427;51.062;17.044;2022-12-11T13:24:33;-0.10;99.90
22522;DHT22;11427;51.062;17.044;2022-12-11T13:39:37;-0.10;99.90
22522;DHT22;11427;51.062;17.044;2022-12-11T13:54:50;-0.20;99.90
22522;DHT22;11427;51.062;17.044;2022-12-11T14:10:06;-0.30;99.90
22522;DHT22;11427;51.062;17.044;2022-12-11T14:25:23;-0.20;99.90
22522;DHT22;11427;51.062;17.044;2022-12-11T14:40:34;-0.30;99.90
22522;DHT22;11427;51.062;17.044;2022-12-11T14:55:37;-0.50;99.90
22522;DHT22;11427;51.062;17.044;2022-12-11T15:10:52;-0.60;99.90
22522;DHT22;11427;51.062;17.044;2022-12-11T15:25:57;-0.60;99.90
22522;DHT22;11427;51.062;17.044;2022-12-11T15:41:00;-0.20;99.90
22522;DHT22;11427;51.062;17.044;2022-12-11T15:56:03;-0.30;99.90
22522;DHT22;11427;51.062;17.044;2022-12-11T16:11:05;-0.40;99.90
22522;DHT22;11427;51.062;17.044;2022-12-11T16:26:07;-0.50;99.90
22522;DHT22;11427;51.062;17.044;2022-12-11T16:41:10;-0.70;99.90
22522;DHT22;11427;51.062;17.044;2022-12-11T16:56:12;-0.60;99.90
22522;DHT22;11427;51.062;17.044;2022-12-11T17:11:16;-0.60;99.90
22522;DHT22;11427;51.062;17.044;2022-12-11T17:26:18;-0.40;99.90
22522;DHT22;11427;51.062;17.044;2022-12-11T17:41:21;-0.30;99.90
22522;DHT22;11427;51.062;17.044;2022-12-11T17:56:23;-0.50;99.90
22522;DHT22;11427;51.062;17.044;2022-12-11T18:11:25;-0.60;99.90
22522;DHT22;11427;51.062;17.044;2022-12-11T18:26:27;-0.50;99.90
22522;DHT22;11427;51.062;17.044;2022-12-11T18:41:29;-0.40;99.90
22522;DHT22;11427;51.062;17.044;2022-12-11T18:56:31;-0.30;99.90
22522;DHT22;11427;51.062;17.044;2022-12-11T19:11:35;0.00;99.90
22522;DHT22;11427;51.062;17.044;2022-12-11T19:26:37;-0.60;99.90
22522;DHT22;11427;51.062;17.044;2022-12-11T19:41:39;-0.60;99.90
22522;DHT22;11427;51.062;17.044;2022-12-11T19:56:42;-0.70;99.90
22522;DHT22;11427;51.062;17.044;2022-12-11T20:11:45;-0.60;99.90
22522;DHT22;11427;51.062;17.044;2022-12-11T20:26:48;-0.60;99.90
22522;DHT22;11427;51.062;17.044;2022-12-11T20:41:50;-0.50;99.90
22522;DHT22;11427;51.062;17.044;2022-12-11T20:56:52;-0.60;99.90
22522;DHT22;11427;51.062;17.044;2022-12-11T21:11:56;-0.50;99.90
22522;DHT22;11427;51.062;17.044;2022-12-11T21:26:59;-0.70;99.90
22522;DHT22;11427;51.062;17.044;2022-12-11T21:42:02;-0.40;99.90
22522;DHT22;11427;51.062;17.044;2022-12-11T21:57:04;-0.70;99.90
22522;DHT22;11427;51.062;17.044;2022-12-11T22:12:07;-0.70;99.90
22522;DHT22;11427;51.062;17.044;2022-12-11T22:27:09;-0.50;99.90
22522;DHT22;11427;51.062;17.044;2022-12-11T22:42:11;-0.70;99.90
22522;DHT22;11427;51.062;17.044;2022-12-11T22:57:13;-0.80;99.90
22522;DHT22;11427;51.062;17.044;2022-12-11T23:12:15;-0.60;99.90
22522;DHT22;11427;51.062;17.044;2022-12-11T23:27:19;-0.50;99.90
22522;DHT22;11427;51.062;17.044;2022-12-11T23:42:21;-0.70;99.90
22522;DHT22;11427;51.062;17.044;2022-12-11T23:57:23;-0.60;99.90
